Nearby METAR Reports

 

LBGO - Gorna Orechovist, Bulgaria
Distance from station: NE 57km
Updated: 03/03/2021 04:00
Clear
Clear
 Wind from varies
Wind: varies 4 km/h
Temperature: -3°C
Dew Point: -3°C
Humidity: 100%
Barometer: 1030 hPa
Clouds: Clear
Visibility: 9 km
2021/03/03 02:00 LBGO 030200Z AUTO VRB02KT 9000 NCD M03/M03 Q1030